sensor_id;sensor_type;location;lat;lon;timestamp;P1;durP1;ratioP1;P2;durP2;ratioP2
78664;SDS011;67981;51.022;-2.870;2023-05-31T00:00:02;9.93;;;4.32;;
78664;SDS011;67981;51.022;-2.870;2023-05-31T00:02:28;7.05;;;4.32;;
78664;SDS011;67981;51.022;-2.870;2023-05-31T00:04:54;10.20;;;4.78;;
78664;SDS011;67981;51.022;-2.870;2023-05-31T00:07:20;8.55;;;4.72;;
78664;SDS011;67981;51.022;-2.870;2023-05-31T00:09:45;8.77;;;5.00;;
78664;SDS011;67981;51.022;-2.870;2023-05-31T00:12:11;7.05;;;4.28;;
78664;SDS011;67981;51.022;-2.870;2023-05-31T00:14:36;7.53;;;4.65;;
78664;SDS011;67981;51.022;-2.870;2023-05-31T00:17:01;7.30;;;4.78;;
78664;SDS011;67981;51.022;-2.870;2023-05-31T00:19:27;8.57;;;4.50;;
78664;SDS011;67981;51.022;-2.870;2023-05-31T00:21:52;6.28;;;4.18;;
78664;SDS011;67981;51.022;-2.870;2023-05-31T00:24:18;6.75;;;4.18;;
78664;SDS011;67981;51.022;-2.870;2023-05-31T00:26:43;5.97;;;3.70;;
78664;SDS011;67981;51.022;-2.870;2023-05-31T00:29:08;5.90;;;4.05;;
78664;SDS011;67981;51.022;-2.870;2023-05-31T00:31:34;9.00;;;4.07;;
78664;SDS011;67981;51.022;-2.870;2023-05-31T00:33:59;6.65;;;3.88;;
78664;SDS011;67981;51.022;-2.870;2023-05-31T00:36:25;7.55;;;4.00;;
78664;SDS011;67981;51.022;-2.870;2023-05-31T00:38:50;6.47;;;3.58;;
78664;SDS011;67981;51.022;-2.870;2023-05-31T00:41:16;8.18;;;4.18;;
78664;SDS011;67981;51.022;-2.870;2023-05-31T00:43:42;6.70;;;4.25;;
78664;SDS011;67981;51.022;-2.870;2023-05-31T00:46:09;6.30;;;3.40;;
78664;SDS011;67981;51.022;-2.870;2023-05-31T00:48:41;6.80;;;3.65;;
78664;SDS011;67981;51.022;-2.870;2023-05-31T00:51:07;5.90;;;3.40;;
78664;SDS011;67981;51.022;-2.870;2023-05-31T00:53:33;5.90;;;3.13;;
78664;SDS011;67981;51.022;-2.870;2023-05-31T00:55:59;7.43;;;3.75;;
78664;SDS011;67981;51.022;-2.870;2023-05-31T00:58:25;7.40;;;4.10;;
78664;SDS011;67981;51.022;-2.870;2023-05-31T01:00:51;7.93;;;3.72;;
78664;SDS011;67981;51.022;-2.870;2023-05-31T01:03:17;9.60;;;3.20;;
78664;SDS011;67981;51.022;-2.870;2023-05-31T01:05:43;7.32;;;3.33;;
78664;SDS011;67981;51.022;-2.870;2023-05-31T01:08:10;5.82;;;3.45;;
78664;SDS011;67981;51.022;-2.870;2023-05-31T01:10:35;6.20;;;3.78;;
78664;SDS011;67981;51.022;-2.870;2023-05-31T01:15:51;7.15;;;3.60;;
78664;SDS011;67981;51.022;-2.870;2023-05-31T01:18:25;5.80;;;3.50;;
78664;SDS011;67981;51.022;-2.870;2023-05-31T01:20:58;5.40;;;3.08;;
78664;SDS011;67981;51.022;-2.870;2023-05-31T01:26:52;5.32;;;3.00;;
78664;SDS011;67981;51.022;-2.870;2023-05-31T01:31:49;5.15;;;3.05;;
78664;SDS011;67981;51.022;-2.870;2023-05-31T01:34:16;4.90;;;2.83;;
78664;SDS011;67981;51.022;-2.870;2023-05-31T01:36:41;5.13;;;2.78;;
78664;SDS011;67981;51.022;-2.870;2023-05-31T01:39:07;4.07;;;2.30;;
78664;SDS011;67981;51.022;-2.870;2023-05-31T01:41:36;5.47;;;2.15;;
78664;SDS011;67981;51.022;-2.870;2023-05-31T01:44:07;3.92;;;1.83;;
78664;SDS011;67981;51.022;-2.870;2023-05-31T01:46:34;3.03;;;1.40;;
78664;SDS011;67981;51.022;-2.870;2023-05-31T01:49:00;2.15;;;1.10;;
78664;SDS011;67981;51.022;-2.870;2023-05-31T01:51:27;2.25;;;1.40;;
78664;SDS011;67981;51.022;-2.870;2023-05-31T01:53:55;2.78;;;1.05;;
78664;SDS011;67981;51.022;-2.870;2023-05-31T01:56:21;2.40;;;1.55;;
78664;SDS011;67981;51.022;-2.870;2023-05-31T01:58:49;2.13;;;1.13;;
78664;SDS011;67981;51.022;-2.870;2023-05-31T02:01:17;2.97;;;1.20;;
78664;SDS011;67981;51.022;-2.870;2023-05-31T02:03:43;3.13;;;1.35;;
78664;SDS011;67981;51.022;-2.870;2023-05-31T02:06:08;2.58;;;1.25;;
78664;SDS011;67981;51.022;-2.870;2023-05-31T02:08:37;2.33;;;1.40;;
78664;SDS011;67981;51.022;-2.870;2023-05-31T02:11:04;2.20;;;1.05;;
78664;SDS011;67981;51.022;-2.870;2023-05-31T02:13:30;2.13;;;1.20;;
78664;SDS011;67981;51.022;-2.870;2023-05-31T02:15:55;2.10;;;1.08;;
78664;SDS011;67981;51.022;-2.870;2023-05-31T02:18:22;4.05;;;1.00;;
78664;SDS011;67981;51.022;-2.870;2023-05-31T02:20:47;1.60;;;0.93;;
78664;SDS011;67981;51.022;-2.870;2023-05-31T02:23:13;2.10;;;1.10;;
78664;SDS011;67981;51.022;-2.870;2023-05-31T02:25:39;2.92;;;1.30;;
78664;SDS011;67981;51.022;-2.870;2023-05-31T02:28:05;3.28;;;1.10;;
78664;SDS011;67981;51.022;-2.870;2023-05-31T02:30:30;3.13;;;1.05;;
78664;SDS011;67981;51.022;-2.870;2023-05-31T02:32:56;1.77;;;0.90;;
78664;SDS011;67981;51.022;-2.870;2023-05-31T02:35:21;2.03;;;1.10;;
78664;SDS011;67981;51.022;-2.870;2023-05-31T02:37:47;1.13;;;0.70;;
78664;SDS011;67981;51.022;-2.870;2023-05-31T02:40:13;1.42;;;0.90;;
78664;SDS011;67981;51.022;-2.870;2023-05-31T02:42:39;1.98;;;1.10;;
78664;SDS011;67981;51.022;-2.870;2023-05-31T02:45:07;1.77;;;1.10;;
78664;SDS011;67981;51.022;-2.870;2023-05-31T02:47:36;1.42;;;0.90;;
78664;SDS011;67981;51.022;-2.870;2023-05-31T02:50:03;1.27;;;0.77;;
78664;SDS011;67981;51.022;-2.870;2023-05-31T02:52:30;1.05;;;0.70;;
78664;SDS011;67981;51.022;-2.870;2023-05-31T02:54:55;1.25;;;0.75;;
78664;SDS011;67981;51.022;-2.870;2023-05-31T02:57:21;1.88;;;0.80;;
78664;SDS011;67981;51.022;-2.870;2023-05-31T02:59:46;1.35;;;0.85;;
78664;SDS011;67981;51.022;-2.870;2023-05-31T03:02:14;1.45;;;0.88;;
78664;SDS011;67981;51.022;-2.870;2023-05-31T03:04:39;2.95;;;0.80;;
78664;SDS011;67981;51.022;-2.870;2023-05-31T03:07:06;1.30;;;0.80;;
78664;SDS011;67981;51.022;-2.870;2023-05-31T03:09:32;1.40;;;0.68;;
78664;SDS011;67981;51.022;-2.870;2023-05-31T03:11:57;1.65;;;0.82;;
78664;SDS011;67981;51.022;-2.870;2023-05-31T03:14:23;1.35;;;0.82;;
78664;SDS011;67981;51.022;-2.870;2023-05-31T03:16:48;1.13;;;0.70;;
78664;SDS011;67981;51.022;-2.870;2023-05-31T03:19:14;1.20;;;0.60;;
78664;SDS011;67981;51.022;-2.870;2023-05-31T03:21:39;1.65;;;0.90;;
78664;SDS011;67981;51.022;-2.870;2023-05-31T03:24:04;0.93;;;0.60;;
78664;SDS011;67981;51.022;-2.870;2023-05-31T03:26:30;2.38;;;0.80;;
78664;SDS011;67981;51.022;-2.870;2023-05-31T03:28:56;2.85;;;1.00;;
78664;SDS011;67981;51.022;-2.870;2023-05-31T03:31:21;1.55;;;0.90;;
78664;SDS011;67981;51.022;-2.870;2023-05-31T03:33:47;1.90;;;0.90;;
78664;SDS011;67981;51.022;-2.870;2023-05-31T03:36:12;1.42;;;0.70;;
78664;SDS011;67981;51.022;-2.870;2023-05-31T03:38:38;2.05;;;0.77;;
78664;SDS011;67981;51.022;-2.870;2023-05-31T03:41:03;1.15;;;0.63;;
78664;SDS011;67981;51.022;-2.870;2023-05-31T03:43:28;1.83;;;0.73;;
78664;SDS011;67981;51.022;-2.870;2023-05-31T03:45:54;2.05;;;1.00;;
78664;SDS011;67981;51.022;-2.870;2023-05-31T03:48:20;1.95;;;1.17;;
78664;SDS011;67981;51.022;-2.870;2023-05-31T03:50:45;0.95;;;0.77;;
78664;SDS011;67981;51.022;-2.870;2023-05-31T03:53:10;2.58;;;1.00;;
78664;SDS011;67981;51.022;-2.870;2023-05-31T03:55:36;2.25;;;0.93;;
78664;SDS011;67981;51.022;-2.870;2023-05-31T03:58:02;2.22;;;1.13;;
78664;SDS011;67981;51.022;-2.870;2023-05-31T04:00:27;1.85;;;1.00;;
78664;SDS011;67981;51.022;-2.870;2023-05-31T04:02:53;2.25;;;1.25;;
78664;SDS011;67981;51.022;-2.870;2023-05-31T04:05:19;2.10;;;1.10;;
78664;SDS011;67981;51.022;-2.870;2023-05-31T04:07:44;2.88;;;1.02;;
78664;SDS011;67981;51.022;-2.870;2023-05-31T04:10:10;3.90;;;1.30;;
78664;SDS011;67981;51.022;-2.870;2023-05-31T04:12:35;3.38;;;1.20;;
78664;SDS011;67981;51.022;-2.870;2023-05-31T04:15:01;1.90;;;1.10;;
78664;SDS011;67981;51.022;-2.870;2023-05-31T04:17:26;2.10;;;0.98;;
78664;SDS011;67981;51.022;-2.870;2023-05-31T04:19:52;3.70;;;1.42;;
78664;SDS011;67981;51.022;-2.870;2023-05-31T04:22:17;2.70;;;1.33;;
78664;SDS011;67981;51.022;-2.870;2023-05-31T04:24:43;2.63;;;1.00;;
78664;SDS011;67981;51.022;-2.870;2023-05-31T04:27:08;2.05;;;1.15;;
78664;SDS011;67981;51.022;-2.870;2023-05-31T04:29:33;2.72;;;1.13;;
78664;SDS011;67981;51.022;-2.870;2023-05-31T04:31:59;1.80;;;1.03;;
78664;SDS011;67981;51.022;-2.870;2023-05-31T04:34:24;1.80;;;1.00;;
78664;SDS011;67981;51.022;-2.870;2023-05-31T04:36:51;2.35;;;1.35;;
78664;SDS011;67981;51.022;-2.870;2023-05-31T04:39:17;1.73;;;1.10;;
78664;SDS011;67981;51.022;-2.870;2023-05-31T04:41:45;1.55;;;0.90;;
78664;SDS011;67981;51.022;-2.870;2023-05-31T04:44:11;1.85;;;1.10;;
78664;SDS011;67981;51.022;-2.870;2023-05-31T04:46:36;1.65;;;0.70;;
78664;SDS011;67981;51.022;-2.870;2023-05-31T04:49:05;1.65;;;0.80;;
78664;SDS011;67981;51.022;-2.870;2023-05-31T04:51:31;2.05;;;1.10;;
78664;SDS011;67981;51.022;-2.870;2023-05-31T04:53:58;2.35;;;1.40;;
78664;SDS011;67981;51.022;-2.870;2023-05-31T04:56:23;1.40;;;0.82;;
78664;SDS011;67981;51.022;-2.870;2023-05-31T04:58:50;1.58;;;0.85;;
78664;SDS011;67981;51.022;-2.870;2023-05-31T05:01:15;1.50;;;0.90;;
78664;SDS011;67981;51.022;-2.870;2023-05-31T05:03:40;1.83;;;0.87;;
78664;SDS011;67981;51.022;-2.870;2023-05-31T05:06:13;1.48;;;0.77;;
78664;SDS011;67981;51.022;-2.870;2023-05-31T05:08:40;1.83;;;0.60;;
78664;SDS011;67981;51.022;-2.870;2023-05-31T05:11:06;1.02;;;0.60;;
78664;SDS011;67981;51.022;-2.870;2023-05-31T05:13:33;2.30;;;0.85;;
78664;SDS011;67981;51.022;-2.870;2023-05-31T05:15:58;1.70;;;0.88;;
78664;SDS011;67981;51.022;-2.870;2023-05-31T05:18:23;1.33;;;1.00;;
78664;SDS011;67981;51.022;-2.870;2023-05-31T05:20:49;1.95;;;1.08;;
78664;SDS011;67981;51.022;-2.870;2023-05-31T05:23:14;1.50;;;1.40;;
78664;SDS011;67981;51.022;-2.870;2023-05-31T05:25:40;3.17;;;1.00;;
78664;SDS011;67981;51.022;-2.870;2023-05-31T05:28:05;1.77;;;0.82;;
78664;SDS011;67981;51.022;-2.870;2023-05-31T05:30:31;1.30;;;0.75;;
78664;SDS011;67981;51.022;-2.870;2023-05-31T05:32:57;2.25;;;0.85;;
78664;SDS011;67981;51.022;-2.870;2023-05-31T05:35:22;1.67;;;0.77;;
78664;SDS011;67981;51.022;-2.870;2023-05-31T05:37:48;1.23;;;0.70;;
78664;SDS011;67981;51.022;-2.870;2023-05-31T05:40:13;1.63;;;0.80;;
78664;SDS011;67981;51.022;-2.870;2023-05-31T05:42:39;1.48;;;0.80;;
78664;SDS011;67981;51.022;-2.870;2023-05-31T05:45:04;2.30;;;1.55;;
78664;SDS011;67981;51.022;-2.870;2023-05-31T05:47:32;1.60;;;0.88;;
78664;SDS011;67981;51.022;-2.870;2023-05-31T05:49:57;1.58;;;0.80;;
78664;SDS011;67981;51.022;-2.870;2023-05-31T05:52:23;2.20;;;0.93;;
78664;SDS011;67981;51.022;-2.870;2023-05-31T05:54:48;1.30;;;0.68;;
78664;SDS011;67981;51.022;-2.870;2023-05-31T05:57:14;1.05;;;0.60;;
78664;SDS011;67981;51.022;-2.870;2023-05-31T05:59:41;0.85;;;0.60;;
78664;SDS011;67981;51.022;-2.870;2023-05-31T06:02:07;1.50;;;0.80;;
78664;SDS011;67981;51.022;-2.870;2023-05-31T06:04:32;1.33;;;0.77;;
78664;SDS011;67981;51.022;-2.870;2023-05-31T06:06:58;1.92;;;0.82;;
78664;SDS011;67981;51.022;-2.870;2023-05-31T06:09:23;1.35;;;0.70;;
78664;SDS011;67981;51.022;-2.870;2023-05-31T06:11:49;2.92;;;0.90;;
78664;SDS011;67981;51.022;-2.870;2023-05-31T06:14:14;1.48;;;0.65;;
78664;SDS011;67981;51.022;-2.870;2023-05-31T06:16:40;1.70;;;0.65;;
78664;SDS011;67981;51.022;-2.870;2023-05-31T06:19:05;1.15;;;0.65;;
78664;SDS011;67981;51.022;-2.870;2023-05-31T06:21:31;0.70;;;0.50;;
78664;SDS011;67981;51.022;-2.870;2023-05-31T06:23:57;1.40;;;0.73;;
78664;SDS011;67981;51.022;-2.870;2023-05-31T06:26:22;2.50;;;0.85;;
78664;SDS011;67981;51.022;-2.870;2023-05-31T06:28:47;0.73;;;0.40;;
78664;SDS011;67981;51.022;-2.870;2023-05-31T06:31:13;4.10;;;0.70;;
78664;SDS011;67981;51.022;-2.870;2023-05-31T06:33:38;0.68;;;0.40;;
78664;SDS011;67981;51.022;-2.870;2023-05-31T06:36:03;0.80;;;0.50;;
78664;SDS011;67981;51.022;-2.870;2023-05-31T06:38:29;0.75;;;0.40;;
78664;SDS011;67981;51.022;-2.870;2023-05-31T06:40:55;0.88;;;0.60;;
78664;SDS011;67981;51.022;-2.870;2023-05-31T06:43:20;0.82;;;0.40;;
78664;SDS011;67981;51.022;-2.870;2023-05-31T06:45:46;0.50;;;0.40;;
78664;SDS011;67981;51.022;-2.870;2023-05-31T06:48:12;1.00;;;0.47;;
78664;SDS011;67981;51.022;-2.870;2023-05-31T06:50:38;1.80;;;0.50;;
78664;SDS011;67981;51.022;-2.870;2023-05-31T06:53:03;3.13;;;0.60;;
78664;SDS011;67981;51.022;-2.870;2023-05-31T06:55:28;0.35;;;0.30;;
78664;SDS011;67981;51.022;-2.870;2023-05-31T06:57:54;1.30;;;0.40;;
78664;SDS011;67981;51.022;-2.870;2023-05-31T07:00:19;0.90;;;0.70;;
78664;SDS011;67981;51.022;-2.870;2023-05-31T07:02:45;1.33;;;0.40;;
78664;SDS011;67981;51.022;-2.870;2023-05-31T07:05:10;0.82;;;0.60;;
78664;SDS011;67981;51.022;-2.870;2023-05-31T07:07:35;0.77;;;0.40;;
78664;SDS011;67981;51.022;-2.870;2023-05-31T07:10:01;1.40;;;0.40;;
78664;SDS011;67981;51.022;-2.870;2023-05-31T07:12:27;0.40;;;0.30;;
78664;SDS011;67981;51.022;-2.870;2023-05-31T07:14:53;0.38;;;0.30;;
78664;SDS011;67981;51.022;-2.870;2023-05-31T07:17:18;0.87;;;0.33;;
78664;SDS011;67981;51.022;-2.870;2023-05-31T07:19:44;0.63;;;0.30;;
78664;SDS011;67981;51.022;-2.870;2023-05-31T07:22:13;0.73;;;0.40;;
78664;SDS011;67981;51.022;-2.870;2023-05-31T07:24:40;0.73;;;0.40;;
78664;SDS011;67981;51.022;-2.870;2023-05-31T07:27:05;2.53;;;1.55;;
78664;SDS011;67981;51.022;-2.870;2023-05-31T07:29:32;6.55;;;5.93;;
78664;SDS011;67981;51.022;-2.870;2023-05-31T07:31:57;5.40;;;4.90;;
78664;SDS011;67981;51.022;-2.870;2023-05-31T07:34:23;3.20;;;2.90;;
78664;SDS011;67981;51.022;-2.870;2023-05-31T07:36:49;2.80;;;2.53;;
78664;SDS011;67981;51.022;-2.870;2023-05-31T07:39:14;4.10;;;1.30;;
78664;SDS011;67981;51.022;-2.870;2023-05-31T07:41:40;24.75;;;18.33;;
78664;SDS011;67981;51.022;-2.870;2023-05-31T07:44:06;1.08;;;0.65;;
78664;SDS011;67981;51.022;-2.870;2023-05-31T07:46:32;2.20;;;1.05;;
78664;SDS011;67981;51.022;-2.870;2023-05-31T07:48:57;4.18;;;1.95;;
78664;SDS011;67981;51.022;-2.870;2023-05-31T07:51:23;3.47;;;2.53;;
78664;SDS011;67981;51.022;-2.870;2023-05-31T07:53:48;17.63;;;13.93;;
78664;SDS011;67981;51.022;-2.870;2023-05-31T07:56:13;6.82;;;6.22;;
78664;SDS011;67981;51.022;-2.870;2023-05-31T07:58:39;2.00;;;1.02;;
78664;SDS011;67981;51.022;-2.870;2023-05-31T08:01:05;2.75;;;1.92;;
78664;SDS011;67981;51.022;-2.870;2023-05-31T08:03:30;1.60;;;0.55;;
78664;SDS011;67981;51.022;-2.870;2023-05-31T08:05:56;0.50;;;0.43;;
78664;SDS011;67981;51.022;-2.870;2023-05-31T08:08:22;1.60;;;1.05;;
78664;SDS011;67981;51.022;-2.870;2023-05-31T08:10:47;2.05;;;0.70;;
78664;SDS011;67981;51.022;-2.870;2023-05-31T08:13:13;0.60;;;0.30;;
78664;SDS011;67981;51.022;-2.870;2023-05-31T08:15:38;2.58;;;0.70;;
78664;SDS011;67981;51.022;-2.870;2023-05-31T08:18:03;2.15;;;0.70;;
78664;SDS011;67981;51.022;-2.870;2023-05-31T08:20:29;1.65;;;1.23;;
78664;SDS011;67981;51.022;-2.870;2023-05-31T08:22:54;1.85;;;1.48;;
78664;SDS011;67981;51.022;-2.870;2023-05-31T08:25:20;2.13;;;1.40;;
78664;SDS011;67981;51.022;-2.870;2023-05-31T08:27:47;2.30;;;1.77;;
78664;SDS011;67981;51.022;-2.870;2023-05-31T08:30:12;2.45;;;1.00;;
78664;SDS011;67981;51.022;-2.870;2023-05-31T08:32:38;2.70;;;1.98;;
78664;SDS011;67981;51.022;-2.870;2023-05-31T08:35:06;1.70;;;1.10;;
78664;SDS011;67981;51.022;-2.870;2023-05-31T08:37:32;0.50;;;0.50;;
78664;SDS011;67981;51.022;-2.870;2023-05-31T08:39:58;1.02;;;0.57;;
78664;SDS011;67981;51.022;-2.870;2023-05-31T08:42:28;1.35;;;0.30;;
78664;SDS011;67981;51.022;-2.870;2023-05-31T08:45:12;1.83;;;0.38;;
78664;SDS011;67981;51.022;-2.870;2023-05-31T08:47:44;0.50;;;0.50;;
78664;SDS011;67981;51.022;-2.870;2023-05-31T08:50:13;0.82;;;0.68;;
78664;SDS011;67981;51.022;-2.870;2023-05-31T08:52:40;2.35;;;0.90;;
78664;SDS011;67981;51.022;-2.870;2023-05-31T08:55:05;2.63;;;1.35;;
78664;SDS011;67981;51.022;-2.870;2023-05-31T08:57:31;3.03;;;1.83;;
78664;SDS011;67981;51.022;-2.870;2023-05-31T08:59:59;2.33;;;1.40;;
78664;SDS011;67981;51.022;-2.870;2023-05-31T09:02:26;1.17;;;0.70;;
78664;SDS011;67981;51.022;-2.870;2023-05-31T09:04:52;1.17;;;0.68;;
78664;SDS011;67981;51.022;-2.870;2023-05-31T09:07:20;2.78;;;0.70;;
78664;SDS011;67981;51.022;-2.870;2023-05-31T09:09:46;0.95;;;0.63;;
78664;SDS011;67981;51.022;-2.870;2023-05-31T09:12:11;2.95;;;0.65;;
78664;SDS011;67981;51.022;-2.870;2023-05-31T09:14:37;1.38;;;0.70;;
78664;SDS011;67981;51.022;-2.870;2023-05-31T09:17:02;1.13;;;0.80;;
78664;SDS011;67981;51.022;-2.870;2023-05-31T09:19:29;2.40;;;0.98;;
78664;SDS011;67981;51.022;-2.870;2023-05-31T09:21:55;2.10;;;1.30;;
78664;SDS011;67981;51.022;-2.870;2023-05-31T09:24:20;3.17;;;1.77;;
78664;SDS011;67981;51.022;-2.870;2023-05-31T09:26:47;1.52;;;1.00;;
78664;SDS011;67981;51.022;-2.870;2023-05-31T09:29:13;1.48;;;1.25;;
78664;SDS011;67981;51.022;-2.870;2023-05-31T09:31:38;2.05;;;1.00;;
78664;SDS011;67981;51.022;-2.870;2023-05-31T09:34:04;5.95;;;0.90;;
78664;SDS011;67981;51.022;-2.870;2023-05-31T09:36:30;1.02;;;0.70;;
78664;SDS011;67981;51.022;-2.870;2023-05-31T09:41:35;3.55;;;1.75;;
78664;SDS011;67981;51.022;-2.870;2023-05-31T09:44:01;6.50;;;4.43;;
78664;SDS011;67981;51.022;-2.870;2023-05-31T09:46:26;5.35;;;1.23;;
78664;SDS011;67981;51.022;-2.870;2023-05-31T09:49:02;1.92;;;1.20;;
78664;SDS011;67981;51.022;-2.870;2023-05-31T09:51:30;3.28;;;1.23;;
78664;SDS011;67981;51.022;-2.870;2023-05-31T09:54:03;3.55;;;1.45;;
78664;SDS011;67981;51.022;-2.870;2023-05-31T09:56:50;1.33;;;0.75;;
78664;SDS011;67981;51.022;-2.870;2023-05-31T09:59:16;4.25;;;1.63;;
78664;SDS011;67981;51.022;-2.870;2023-05-31T10:01:41;3.00;;;2.05;;
78664;SDS011;67981;51.022;-2.870;2023-05-31T10:04:09;3.25;;;1.70;;
78664;SDS011;67981;51.022;-2.870;2023-05-31T10:06:35;1.75;;;0.82;;
78664;SDS011;67981;51.022;-2.870;2023-05-31T10:09:10;3.08;;;0.90;;
78664;SDS011;67981;51.022;-2.870;2023-05-31T10:14:02;1.67;;;0.93;;
78664;SDS011;67981;51.022;-2.870;2023-05-31T10:16:35;2.38;;;1.00;;
78664;SDS011;67981;51.022;-2.870;2023-05-31T10:19:19;13.23;;;7.82;;
78664;SDS011;67981;51.022;-2.870;2023-05-31T10:24:17;3.17;;;1.10;;
78664;SDS011;67981;51.022;-2.870;2023-05-31T10:29:23;4.10;;;1.48;;
78664;SDS011;67981;51.022;-2.870;2023-05-31T10:31:51;3.33;;;1.15;;
78664;SDS011;67981;51.022;-2.870;2023-05-31T10:34:25;2.72;;;1.65;;
78664;SDS011;67981;51.022;-2.870;2023-05-31T10:36:51;2.00;;;1.20;;
78664;SDS011;67981;51.022;-2.870;2023-05-31T10:44:37;2.15;;;0.93;;
78664;SDS011;67981;51.022;-2.870;2023-05-31T10:47:07;2.45;;;1.15;;
78664;SDS011;67981;51.022;-2.870;2023-05-31T10:49:37;2.47;;;1.33;;
78664;SDS011;67981;51.022;-2.870;2023-05-31T10:52:08;1.73;;;0.93;;
78664;SDS011;67981;51.022;-2.870;2023-05-31T10:54:34;1.75;;;1.00;;
78664;SDS011;67981;51.022;-2.870;2023-05-31T10:57:02;3.10;;;1.23;;
78664;SDS011;67981;51.022;-2.870;2023-05-31T10:59:29;3.65;;;1.73;;
78664;SDS011;67981;51.022;-2.870;2023-05-31T11:02:05;4.43;;;1.40;;
78664;SDS011;67981;51.022;-2.870;2023-05-31T11:04:31;1.70;;;1.10;;
78664;SDS011;67981;51.022;-2.870;2023-05-31T11:07:10;2.92;;;0.98;;
78664;SDS011;67981;51.022;-2.870;2023-05-31T11:09:59;8.05;;;1.73;;
78664;SDS011;67981;51.022;-2.870;2023-05-31T11:12:31;36.70;;;17.50;;
78664;SDS011;67981;51.022;-2.870;2023-05-31T11:15:01;29.20;;;11.55;;
78664;SDS011;67981;51.022;-2.870;2023-05-31T11:17:28;11.02;;;4.43;;
78664;SDS011;67981;51.022;-2.870;2023-05-31T11:19:53;19.65;;;9.65;;
78664;SDS011;67981;51.022;-2.870;2023-05-31T11:22:24;19.60;;;10.20;;
78664;SDS011;67981;51.022;-2.870;2023-05-31T11:24:54;12.15;;;5.25;;
78664;SDS011;67981;51.022;-2.870;2023-05-31T11:27:39;8.82;;;2.65;;
78664;SDS011;67981;51.022;-2.870;2023-05-31T11:30:08;10.73;;;9.75;;
78664;SDS011;67981;51.022;-2.870;2023-05-31T11:35:16;7.10;;;3.78;;
78664;SDS011;67981;51.022;-2.870;2023-05-31T11:37:42;3.63;;;1.77;;
78664;SDS011;67981;51.022;-2.870;2023-05-31T11:40:08;3.30;;;2.13;;
78664;SDS011;67981;51.022;-2.870;2023-05-31T11:42:37;12.35;;;4.78;;
78664;SDS011;67981;51.022;-2.870;2023-05-31T11:45:05;17.85;;;10.38;;
78664;SDS011;67981;51.022;-2.870;2023-05-31T11:47:32;13.98;;;9.20;;
78664;SDS011;67981;51.022;-2.870;2023-05-31T11:50:14;8.82;;;3.30;;
78664;SDS011;67981;51.022;-2.870;2023-05-31T11:52:41;16.38;;;8.02;;
78664;SDS011;67981;51.022;-2.870;2023-05-31T11:55:07;4.60;;;2.67;;
78664;SDS011;67981;51.022;-2.870;2023-05-31T11:57:41;5.30;;;3.35;;
78664;SDS011;67981;51.022;-2.870;2023-05-31T12:00:10;4.35;;;2.30;;
78664;SDS011;67981;51.022;-2.870;2023-05-31T12:02:38;26.75;;;17.33;;
78664;SDS011;67981;51.022;-2.870;2023-05-31T12:05:04;9.15;;;4.45;;
78664;SDS011;67981;51.022;-2.870;2023-05-31T12:07:31;9.43;;;3.88;;
78664;SDS011;67981;51.022;-2.870;2023-05-31T12:09:57;3.70;;;1.77;;
78664;SDS011;67981;51.022;-2.870;2023-05-31T12:12:23;3.53;;;1.77;;
78664;SDS011;67981;51.022;-2.870;2023-05-31T12:14:52;4.38;;;1.90;;
78664;SDS011;67981;51.022;-2.870;2023-05-31T12:17:19;6.05;;;2.15;;
